KALW/ALW METAR and TAF weather

Enter ICAO airport designator
Station Type Date Time Source
KALW METAR 2019/04/18 19:53 UTC NOAA

KALW 181953Z 28006KT 10SM FEW120 22/07 A3020 RMK AO2 SLP223 T02220067


Station Type Date Time Source
KALW Decoded METAR 2019/04/18 19:53 UTC NOAA

WALLA WALLA REGIONAL AIRPORT, WA, United States (KALW) 46-06N 118-17W 363M
Apr 18, 2019 - 03:53 PM EDT / 2019.04.18 1953 UTC
Wind: from the W (280 degrees) at 7 MPH (6 KT):0
Visibility: 10 mile(s):0
Sky conditions: mostly clear
Temperature: 72.0 F (22.2 C)
Dew Point: 44.1 F (6.7 C)
Relative Humidity: 36%
Pressure (altimeter): 30.2 in. Hg (1022 hPa)
ob: KALW 181953Z 28006KT 10SM FEW120 22/07 A3020 RMK AO2 SLP223 T02220067
cycle: 20

Station Type Date Time Source
KALW TAF 2019/04/18 18:24 UTC NOAA

TAF KALW 181723Z 1818/1918 18007KT P6SM SCT120 SCT250
FM190200 17008KT P6SM FEW100 SCT150
FM191730 24012G20KT P6SM VCSH SCT050 BKN070

Example: see airport list